Time;durP1;ratioP1;P1;durP2;ratioP2;P2;SDS_P1;SDS_P2;PMS_P1;PMS_P2;Temp;Humidity;BMP_temperature;BMP_pressure;BME280_temperature;BME280_humidity;BME280_pressure;Samples;Min_cycle;Max_cycle;Signal;HPM_P1;HPM_P2
2022/01/11 00:00:09;;;;;;;34.17;20.40;;;0.10;99.90;;;;;;5048147;28;20215;-78
2022/01/11 00:02:40;;;;;;;34.40;19.92;;;0.10;99.90;;;;;;5045380;28;20629;-82
2022/01/11 00:05:09;;;;;;;40.55;20.95;;;0.10;99.90;;;;;;5046741;28;20257;-80
2022/01/11 00:07:36;;;;;;;35.28;19.48;;;0.20;99.90;;;;;;5048170;28;20261;-80
2022/01/11 00:10:07;;;;;;;36.03;21.02;;;0.20;99.90;;;;;;5045723;28;20668;-80
2022/01/11 00:12:35;;;;;;;35.67;21.27;;;0.20;99.90;;;;;;5044042;28;20207;-82
2022/01/11 00:15:02;;;;;;;32.25;20.58;;;0.10;99.90;;;;;;5043457;28;20237;-79
2022/01/11 00:17:29;;;;;;;33.65;19.80;;;0.10;99.90;;;;;;5044200;28;20238;-79
2022/01/11 00:19:57;;;;;;;39.97;20.50;;;0.10;99.90;;;;;;5047940;28;20211;-80
2022/01/11 00:22:30;;;;;;;33.60;20.15;;;0.00;99.90;;;;;;5048311;28;20206;-78
2022/01/11 00:24:56;;;;;;;40.70;20.98;;;0.00;99.90;;;;;;5045511;28;20227;-80
2022/01/11 00:27:23;;;;;;;35.00;20.00;;;0.00;99.90;;;;;;5041447;28;20249;-81
2022/01/11 00:29:54;;;;;;;30.40;18.90;;;0.00;99.90;;;;;;5044038;28;20942;-79
2022/01/11 00:32:34;;;;;;;33.35;20.48;;;0.10;99.90;;;;;;5041893;28;20211;-79
2022/01/11 00:35:03;;;;;;;34.90;20.40;;;0.10;99.90;;;;;;5042122;28;20612;-79
2022/01/11 00:37:30;;;;;;;31.52;20.73;;;0.00;99.90;;;;;;5049169;28;20227;-79
2022/01/11 00:39:59;;;;;;;37.53;21.83;;;0.00;99.90;;;;;;5049259;28;20215;-80
2022/01/11 00:42:26;;;;;;;35.10;20.35;;;0.00;99.90;;;;;;5048784;28;20703;-79
2022/01/11 00:44:54;;;;;;;38.65;19.95;;;0.00;99.90;;;;;;5047097;28;20241;-80
2022/01/11 00:47:21;;;;;;;35.17;21.58;;;0.10;99.90;;;;;;5048918;28;20299;-78
2022/01/11 00:49:50;;;;;;;34.95;21.13;;;0.10;99.90;;;;;;5047870;28;20271;-79
2022/01/11 00:52:17;;;;;;;44.35;22.52;;;0.00;99.90;;;;;;5045913;28;20214;-79
2022/01/11 00:54:44;;;;;;;37.65;21.65;;;0.00;99.90;;;;;;5044575;28;20230;-79
2022/01/11 00:57:12;;;;;;;35.75;21.58;;;0.00;99.90;;;;;;5044500;28;20303;-77
2022/01/11 00:59:40;;;;;;;41.67;20.35;;;0.00;99.90;;;;;;5051296;28;20211;-77
2022/01/11 01:02:08;;;;;;;38.90;22.13;;;0.10;99.90;;;;;;5052961;28;20201;-77
2022/01/11 01:04:35;;;;;;;33.20;21.02;;;0.00;99.90;;;;;;5052917;28;20249;-77
2022/01/11 01:07:02;;;;;;;36.15;21.42;;;0.00;99.90;;;;;;5054069;28;20250;-78
2022/01/11 01:09:37;;;;;;;31.38;20.10;;;0.00;99.90;;;;;;5053114;28;20219;-80
2022/01/11 01:12:05;;;;;;;34.55;19.52;;;0.00;99.90;;;;;;5054740;28;20288;-80
2022/01/11 01:14:32;;;;;;;35.08;18.65;;;0.00;99.90;;;;;;5056016;28;20277;-77
2022/01/11 01:16:59;;;;;;;39.63;18.90;;;-0.10;99.90;;;;;;5054495;28;20235;-78
2022/01/11 01:19:27;;;;;;;36.00;20.23;;;-0.10;99.90;;;;;;5055198;28;20207;-79
2022/01/11 01:21:55;;;;;;;34.45;18.67;;;-0.10;99.90;;;;;;5049495;28;20211;-79
2022/01/11 01:24:22;;;;;;;31.58;18.60;;;-0.10;99.90;;;;;;5050895;28;20222;-78
2022/01/11 01:26:49;;;;;;;35.50;20.35;;;-0.10;99.90;;;;;;5052722;28;20251;-77
2022/01/11 01:29:16;;;;;;;32.67;19.27;;;-0.10;99.90;;;;;;5051420;28;20210;-79
2022/01/11 01:31:43;;;;;;;33.03;20.58;;;0.00;99.90;;;;;;5051158;28;20210;-79
2022/01/11 01:34:10;;;;;;;30.75;19.77;;;0.00;99.90;;;;;;5052439;28;20237;-78
2022/01/11 01:36:39;;;;;;;34.53;19.17;;;0.00;99.90;;;;;;5044999;28;20223;-78
2022/01/11 01:39:21;;;;;;;39.72;20.52;;;0.10;99.90;;;;;;5100617;27;20648;-78
2022/01/11 01:41:49;;;;;;;33.35;19.73;;;0.20;99.90;;;;;;5104735;28;20280;-77
2022/01/11 01:44:16;;;;;;;36.88;19.85;;;0.20;99.90;;;;;;5109116;28;20205;-79
2022/01/11 01:46:43;;;;;;;32.90;19.52;;;0.20;99.90;;;;;;5107945;28;20231;-78
2022/01/11 01:49:16;;;;;;;36.47;19.52;;;0.20;99.90;;;;;;5110207;28;20205;-79
2022/01/11 01:51:44;;;;;;;31.67;18.77;;;0.20;99.90;;;;;;5106226;28;20272;-77
2022/01/11 01:54:11;;;;;;;30.85;19.17;;;0.30;99.90;;;;;;5095262;28;20217;-79
2022/01/11 01:56:39;;;;;;;31.50;18.60;;;0.30;99.90;;;;;;5092516;28;20316;-78
2022/01/11 01:59:07;;;;;;;27.52;17.27;;;0.40;99.90;;;;;;5091756;28;20247;-77
2022/01/11 02:01:38;;;;;;;33.83;18.77;;;0.40;99.90;;;;;;5091677;28;20201;-77
2022/01/11 02:04:06;;;;;;;32.35;18.45;;;0.40;99.90;;;;;;5094122;28;20641;-79
2022/01/11 02:06:33;;;;;;;29.85;18.60;;;0.40;99.90;;;;;;5093182;28;20264;-77
2022/01/11 02:08:59;;;;;;;29.35;19.00;;;0.40;99.90;;;;;;5094096;28;20198;-77
2022/01/11 02:11:26;;;;;;;31.65;18.65;;;0.40;99.90;;;;;;5099104;28;20273;-78
2022/01/11 02:13:55;;;;;;;34.47;18.45;;;0.30;99.90;;;;;;5098926;28;20217;-78
2022/01/11 02:16:22;;;;;;;34.97;19.27;;;0.30;99.90;;;;;;5094048;28;20315;-78
2022/01/11 02:18:50;;;;;;;38.00;19.50;;;0.30;99.90;;;;;;5093051;28;20244;-79
2022/01/11 02:21:18;;;;;;;25.77;18.92;;;0.20;99.90;;;;;;5106394;28;20327;-78
2022/01/11 02:23:46;;;;;;;29.33;17.92;;;0.20;99.90;;;;;;5112551;28;20235;-78
2022/01/11 02:26:13;;;;;;;32.20;18.85;;;0.20;99.90;;;;;;5112369;28;20240;-77
2022/01/11 02:28:40;;;;;;;28.92;18.27;;;0.30;99.90;;;;;;5112842;28;20208;-78
2022/01/11 02:31:12;;;;;;;30.58;17.02;;;0.30;99.90;;;;;;5109460;28;20212;-77
2022/01/11 02:33:44;;;;;;;32.50;19.42;;;0.30;99.90;;;;;;5102450;28;20216;-76
2022/01/11 02:36:14;;;;;;;32.65;18.55;;;0.20;99.90;;;;;;5102363;28;20233;-76
2022/01/11 02:38:42;;;;;;;37.47;19.75;;;0.20;99.90;;;;;;5092684;28;20652;-78
2022/01/11 02:41:09;;;;;;;35.17;18.02;;;0.30;99.90;;;;;;5091624;28;20252;-76
2022/01/11 02:43:41;;;;;;;30.25;18.30;;;0.30;99.90;;;;;;5093683;28;20210;-78
2022/01/11 02:46:08;;;;;;;42.38;19.50;;;0.20;99.90;;;;;;5098385;28;20228;-78
2022/01/11 02:48:37;;;;;;;28.38;18.60;;;0.20;99.90;;;;;;5095637;28;20202;-78
2022/01/11 02:51:04;;;;;;;32.55;19.55;;;0.20;99.90;;;;;;5079395;28;20233;-78
2022/01/11 02:53:32;;;;;;;35.90;19.20;;;0.10;99.90;;;;;;5081951;28;20225;-77
2022/01/11 02:56:00;;;;;;;28.52;16.42;;;0.20;99.90;;;;;;5080715;28;20225;-78
2022/01/11 02:58:27;;;;;;;28.50;17.80;;;0.20;99.90;;;;;;5080026;28;20283;-78
2022/01/11 03:00:54;;;;;;;35.63;19.15;;;0.10;99.90;;;;;;5078998;28;20296;-76
2022/01/11 03:03:22;;;;;;;35.25;18.80;;;0.10;99.90;;;;;;5079170;28;20588;-78
2022/01/11 03:05:51;;;;;;;39.00;18.92;;;0.10;99.90;;;;;;5083187;28;20229;-79
2022/01/11 03:08:19;;;;;;;34.33;18.15;;;0.10;99.90;;;;;;5086875;28;20205;-79
2022/01/11 03:10:48;;;;;;;30.40;17.95;;;0.10;99.90;;;;;;5086040;28;20205;-78
2022/01/11 03:13:17;;;;;;;29.90;19.33;;;0.20;99.90;;;;;;5089973;28;20217;-78
2022/01/11 03:15:45;;;;;;;31.73;19.58;;;0.10;99.90;;;;;;5087311;28;20667;-79
2022/01/11 03:18:12;;;;;;;34.90;20.45;;;0.10;99.90;;;;;;5084842;28;20225;-78
2022/01/11 03:20:41;;;;;;;27.40;17.30;;;0.20;99.90;;;;;;5084672;28;20205;-77
2022/01/11 03:23:09;;;;;;;25.90;18.20;;;0.20;99.90;;;;;;5079791;28;20205;-78
2022/01/11 03:25:37;;;;;;;35.25;19.27;;;0.20;99.90;;;;;;5081993;28;20206;-79
2022/01/11 03:28:04;;;;;;;30.38;18.35;;;0.20;99.90;;;;;;5089107;28;20230;-76
2022/01/11 03:30:34;;;;;;;30.38;18.75;;;0.20;99.90;;;;;;5092188;28;20281;-77
2022/01/11 03:33:02;;;;;;;32.58;19.15;;;0.10;99.90;;;;;;5092224;28;20210;-77
2022/01/11 03:35:32;;;;;;;32.45;17.67;;;0.10;99.90;;;;;;5079501;28;20210;-77
2022/01/11 03:37:59;;;;;;;26.38;16.58;;;0.10;99.90;;;;;;5078248;28;20265;-77
2022/01/11 03:40:27;;;;;;;34.03;19.83;;;0.10;99.90;;;;;;5081966;28;20209;-78
2022/01/11 03:42:54;;;;;;;31.70;17.50;;;0.00;99.90;;;;;;5077800;28;20292;-78
2022/01/11 03:45:22;;;;;;;33.70;18.08;;;0.00;99.90;;;;;;5077849;28;20550;-77
2022/01/11 03:47:52;;;;;;;28.00;17.52;;;0.10;99.90;;;;;;5081275;28;20244;-77
2022/01/11 03:50:20;;;;;;;32.78;18.27;;;0.10;99.90;;;;;;5080852;28;20212;-78
2022/01/11 03:52:47;;;;;;;37.50;19.35;;;0.10;99.90;;;;;;5077854;28;20537;-78
2022/01/11 03:55:21;;;;;;;32.85;19.70;;;0.10;99.90;;;;;;5078473;28;20209;-77
2022/01/11 03:57:49;;;;;;;34.78;20.02;;;0.00;99.90;;;;;;5077813;28;20230;-78
2022/01/11 04:00:18;;;;;;;31.30;19.20;;;0.00;99.90;;;;;;5079178;28;20214;-78
2022/01/11 04:02:45;;;;;;;40.25;21.17;;;0.00;99.90;;;;;;5084580;28;20202;-77
2022/01/11 04:05:14;;;;;;;33.45;19.55;;;0.10;99.90;;;;;;5090488;28;20216;-78
2022/01/11 04:07:41;;;;;;;35.95;19.70;;;0.10;99.90;;;;;;5088136;28;20233;-78
2022/01/11 04:10:10;;;;;;;41.55;21.40;;;0.10;99.90;;;;;;5094417;28;20220;-78
2022/01/11 04:12:37;;;;;;;33.65;19.38;;;0.10;99.90;;;;;;5082362;28;20225;-77
2022/01/11 04:15:04;;;;;;;44.75;19.63;;;0.10;99.90;;;;;;5080222;28;20623;-79
2022/01/11 04:17:31;;;;;;;36.60;19.83;;;0.10;99.90;;;;;;5079173;28;20638;-78
2022/01/11 04:19:58;;;;;;;36.67;19.67;;;0.20;99.90;;;;;;5079818;28;20255;-79
2022/01/11 04:22:26;;;;;;;38.42;21.27;;;0.10;99.90;;;;;;5078719;28;20292;-78
2022/01/11 04:24:53;;;;;;;38.25;20.67;;;0.20;99.90;;;;;;5076516;28;20277;-77
2022/01/11 04:27:20;;;;;;;42.38;21.75;;;0.20;99.90;;;;;;5077266;28;20588;-79
2022/01/11 04:29:47;;;;;;;32.80;19.60;;;0.20;99.90;;;;;;5075429;28;20305;-77
2022/01/11 04:32:14;;;;;;;36.38;21.15;;;0.20;99.90;;;;;;5075806;28;20210;-77
2022/01/11 04:34:41;;;;;;;33.55;20.27;;;0.30;99.90;;;;;;5075507;28;20213;-77
2022/01/11 04:37:08;;;;;;;37.17;21.20;;;0.30;99.90;;;;;;5075216;28;20252;-77
2022/01/11 04:39:36;;;;;;;41.53;21.63;;;0.30;99.90;;;;;;5075656;28;20315;-76
2022/01/11 04:42:03;;;;;;;45.45;22.95;;;0.30;99.90;;;;;;5075211;28;20236;-77
2022/01/11 04:44:30;;;;;;;42.75;21.67;;;0.40;99.90;;;;;;5068860;28;20256;-76
2022/01/11 04:46:57;;;;;;;36.28;21.95;;;0.40;99.90;;;;;;5071563;28;20228;-77
2022/01/11 04:49:24;;;;;;;44.40;21.58;;;0.50;99.90;;;;;;5088110;28;20232;-76
2022/01/11 04:51:53;;;;;;;36.35;22.10;;;0.50;99.90;;;;;;5065987;28;20629;-77
2022/01/11 04:54:20;;;;;;;31.20;20.25;;;0.50;99.90;;;;;;5054492;28;20209;-77
2022/01/11 04:56:49;;;;;;;39.28;20.98;;;0.50;99.90;;;;;;5061497;28;20227;-76
2022/01/11 04:59:15;;;;;;;33.67;20.98;;;0.50;99.90;;;;;;5072838;28;20729;-78
2022/01/11 05:01:43;;;;;;;33.08;20.10;;;0.50;99.90;;;;;;5054507;28;20674;-77
2022/01/11 05:04:12;;;;;;;33.58;20.10;;;0.50;99.90;;;;;;5054268;28;20256;-77
2022/01/11 05:06:39;;;;;;;33.10;20.50;;;0.50;99.90;;;;;;5074747;28;20225;-77
2022/01/11 05:09:06;;;;;;;33.13;19.55;;;0.60;99.90;;;;;;5075955;28;20205;-78
2022/01/11 05:11:33;;;;;;;31.58;19.27;;;0.60;99.90;;;;;;5055182;28;20202;-77
2022/01/11 05:14:01;;;;;;;35.08;19.35;;;0.60;99.90;;;;;;5055102;28;20301;-77
2022/01/11 05:16:28;;;;;;;32.15;20.20;;;0.70;99.90;;;;;;5065714;28;20228;-76
2022/01/11 05:18:55;;;;;;;35.15;20.55;;;0.70;99.90;;;;;;5073171;28;20221;-77
2022/01/11 05:21:22;;;;;;;34.78;19.77;;;0.60;99.90;;;;;;5058000;28;20566;-76
2022/01/11 05:23:49;;;;;;;38.58;20.40;;;0.70;99.90;;;;;;5054958;28;20218;-77
2022/01/11 05:26:16;;;;;;;30.50;20.45;;;0.70;99.90;;;;;;5068285;28;20217;-76
2022/01/11 05:28:43;;;;;;;34.83;21.25;;;0.80;99.90;;;;;;5063650;28;20285;-76
2022/01/11 05:31:11;;;;;;;40.35;19.45;;;0.80;99.90;;;;;;5061228;28;20297;-79
2022/01/11 05:33:38;;;;;;;33.03;19.67;;;0.70;99.90;;;;;;5056289;28;20666;-76
2022/01/11 05:36:05;;;;;;;31.08;19.85;;;0.70;99.90;;;;;;5056253;28;20582;-76
2022/01/11 05:38:32;;;;;;;34.53;18.83;;;0.70;99.90;;;;;;5061149;28;20258;-77
2022/01/11 05:40:59;;;;;;;35.35;19.55;;;0.70;99.90;;;;;;5060600;28;20267;-77
2022/01/11 05:43:26;;;;;;;31.92;20.20;;;0.80;99.90;;;;;;5059982;28;20202;-78
2022/01/11 05:45:53;;;;;;;37.90;20.30;;;0.80;99.90;;;;;;5063943;28;20226;-78
2022/01/11 05:48:21;;;;;;;38.00;20.45;;;0.80;99.90;;;;;;5061926;28;20198;-77
2022/01/11 05:50:48;;;;;;;39.70;20.70;;;0.90;99.90;;;;;;5056835;28;20297;-78
2022/01/11 05:53:15;;;;;;;32.17;20.60;;;0.90;99.90;;;;;;5056537;28;20738;-78
2022/01/11 05:55:42;;;;;;;35.45;21.10;;;1.00;99.90;;;;;;5056685;28;20210;-77
2022/01/11 05:58:09;;;;;;;37.28;20.23;;;1.00;99.90;;;;;;5057667;28;20213;-78
2022/01/11 06:00:36;;;;;;;40.45;20.65;;;0.90;99.90;;;;;;5056904;28;20230;-77
2022/01/11 06:03:03;;;;;;;30.83;19.52;;;0.90;99.90;;;;;;5057261;28;20679;-78
2022/01/11 06:05:35;;;;;;;36.92;21.10;;;0.90;99.90;;;;;;5057344;28;20263;-77
2022/01/11 06:08:02;;;;;;;33.33;18.70;;;0.90;99.90;;;;;;5061775;28;20218;-77
2022/01/11 06:10:29;;;;;;;32.08;19.10;;;1.00;99.90;;;;;;5064482;28;20198;-77
2022/01/11 06:12:56;;;;;;;32.55;19.33;;;1.00;99.90;;;;;;5066503;28;20225;-77
2022/01/11 06:15:23;;;;;;;36.97;19.70;;;1.10;99.90;;;;;;5066859;28;20266;-77
2022/01/11 06:17:51;;;;;;;35.40;17.88;;;1.10;99.90;;;;;;5065120;28;20265;-79
2022/01/11 06:20:17;;;;;;;32.78;17.50;;;1.20;99.90;;;;;;5066849;28;20288;-77
2022/01/11 06:22:46;;;;;;;36.88;19.83;;;1.20;99.90;;;;;;5066736;28;20241;-78
2022/01/11 06:25:13;;;;;;;29.48;17.52;;;1.10;99.90;;;;;;5072753;28;20206;-78
2022/01/11 06:27:42;;;;;;;33.58;18.50;;;1.10;99.90;;;;;;5075050;28;20325;-76
2022/01/11 06:30:10;;;;;;;34.15;19.02;;;1.20;99.90;;;;;;5073345;28;20217;-77
2022/01/11 06:32:39;;;;;;;31.17;17.45;;;1.30;99.90;;;;;;5064435;28;20209;-77
2022/01/11 06:35:07;;;;;;;29.52;18.30;;;1.30;99.90;;;;;;5062290;28;20226;-77
2022/01/11 06:37:35;;;;;;;36.58;17.50;;;1.20;99.90;;;;;;5068357;28;20239;-76
2022/01/11 06:40:03;;;;;;;32.38;18.30;;;1.20;99.90;;;;;;5068479;28;20218;-77
2022/01/11 06:42:33;;;;;;;32.97;18.80;;;1.30;99.90;;;;;;5069960;28;20226;-77
2022/01/11 06:45:00;;;;;;;33.92;19.75;;;1.30;99.90;;;;;;5072738;28;20221;-76
2022/01/11 06:47:27;;;;;;;31.70;19.05;;;1.30;99.90;;;;;;5065084;28;20230;-77
2022/01/11 06:49:54;;;;;;;27.83;17.50;;;1.30;99.90;;;;;;5065390;28;20298;-77
2022/01/11 06:52:21;;;;;;;34.65;19.17;;;1.30;99.90;;;;;;5066191;28;20627;-77
2022/01/11 06:54:48;;;;;;;26.85;16.83;;;1.30;99.90;;;;;;5065233;28;20217;-77
2022/01/11 06:57:16;;;;;;;37.92;17.63;;;1.30;99.90;;;;;;5063165;28;20320;-77
2022/01/11 06:59:43;;;;;;;30.50;18.00;;;1.30;99.90;;;;;;5057974;28;20230;-77
2022/01/11 07:02:10;;;;;;;32.72;16.92;;;1.30;99.90;;;;;;5057670;28;20214;-77
2022/01/11 07:04:37;;;;;;;36.40;18.13;;;1.30;99.90;;;;;;5059471;28;20219;-77
2022/01/11 07:07:05;;;;;;;31.23;18.67;;;1.40;99.90;;;;;;5063582;28;20230;-77
2022/01/11 07:09:32;;;;;;;35.00;18.90;;;1.40;99.90;;;;;;5065368;28;20203;-76
2022/01/11 07:11:59;;;;;;;29.67;17.85;;;1.30;99.90;;;;;;5063662;28;20215;-77
2022/01/11 07:14:27;;;;;;;31.10;17.98;;;1.30;99.90;;;;;;5062270;28;20311;-76
2022/01/11 07:16:54;;;;;;;33.40;17.02;;;1.30;99.90;;;;;;5064611;28;20257;-77
2022/01/11 07:19:21;;;;;;;34.15;18.10;;;1.40;99.90;;;;;;5066255;28;20222;-78
2022/01/11 07:21:49;;;;;;;31.83;18.10;;;1.40;99.90;;;;;;5068534;28;20245;-76
2022/01/11 07:24:18;;;;;;;37.13;19.63;;;1.40;99.90;;;;;;5068291;28;20222;-77
2022/01/11 07:26:45;;;;;;;31.95;16.90;;;1.40;99.90;;;;;;5077097;28;20210;-77
2022/01/11 07:29:12;;;;;;;29.08;17.40;;;1.50;99.90;;;;;;5078683;28;20257;-76
2022/01/11 07:31:41;;;;;;;35.38;18.60;;;1.50;99.90;;;;;;5077504;28;20202;-77
2022/01/11 07:34:09;;;;;;;33.53;18.60;;;1.50;99.90;;;;;;5063056;28;20588;-77
2022/01/11 07:36:36;;;;;;;30.63;16.48;;;1.50;99.90;;;;;;5072306;28;20254;-77
2022/01/11 07:39:04;;;;;;;32.63;17.95;;;1.40;99.90;;;;;;5077003;28;20229;-76
2022/01/11 07:41:31;;;;;;;32.05;18.42;;;1.30;99.90;;;;;;5077818;28;20230;-77
2022/01/11 07:43:58;;;;;;;28.90;18.10;;;1.30;99.90;;;;;;5078029;28;20202;-77
2022/01/11 07:46:25;;;;;;;31.08;16.27;;;1.40;99.90;;;;;;5077814;28;20234;-77
2022/01/11 07:48:53;;;;;;;29.67;17.60;;;1.50;99.90;;;;;;5076397;28;20226;-77
2022/01/11 07:51:20;;;;;;;32.40;17.58;;;1.50;99.90;;;;;;5074158;28;20214;-77
2022/01/11 07:53:48;;;;;;;33.35;18.20;;;1.50;99.90;;;;;;5075026;28;20212;-77
2022/01/11 07:56:15;;;;;;;31.83;18.13;;;1.50;99.90;;;;;;5072898;28;20286;-78
2022/01/11 07:58:42;;;;;;;30.83;16.38;;;1.50;99.90;;;;;;5074269;28;20229;-76
2022/01/11 08:01:09;;;;;;;28.42;17.15;;;1.60;99.90;;;;;;5075647;28;20238;-74
2022/01/11 08:03:36;;;;;;;35.22;19.23;;;1.50;99.90;;;;;;5074617;28;20217;-77
2022/01/11 08:06:05;;;;;;;29.52;17.42;;;1.60;99.90;;;;;;5072311;28;20227;-78
2022/01/11 08:08:33;;;;;;;33.55;18.98;;;1.60;99.90;;;;;;5067780;28;20831;-78
2022/01/11 08:11:00;;;;;;;29.08;16.05;;;1.50;99.90;;;;;;5067290;28;20207;-77
2022/01/11 08:13:27;;;;;;;27.45;17.30;;;1.60;99.90;;;;;;5067822;28;20202;-78
2022/01/11 08:15:54;;;;;;;27.02;16.98;;;1.60;99.90;;;;;;5065957;28;20226;-77
2022/01/11 08:18:21;;;;;;;33.63;18.77;;;1.70;99.90;;;;;;5063208;28;20206;-79
2022/01/11 08:20:49;;;;;;;28.35;18.20;;;1.60;99.90;;;;;;5063277;28;20226;-78
2022/01/11 08:23:17;;;;;;;31.48;17.23;;;1.60;99.90;;;;;;5062214;28;20202;-77
2022/01/11 08:25:44;;;;;;;34.92;18.02;;;1.70;99.90;;;;;;5059437;28;20210;-76
2022/01/11 08:28:12;;;;;;;41.83;18.42;;;1.70;99.90;;;;;;5058978;28;20199;-78
2022/01/11 08:30:39;;;;;;;34.60;15.63;;;1.70;99.90;;;;;;5058808;28;20198;-78
2022/01/11 08:33:06;;;;;;;26.23;16.75;;;1.80;99.90;;;;;;5066141;28;20214;-79
2022/01/11 08:35:34;;;;;;;33.05;18.77;;;1.80;99.90;;;;;;5069923;28;20706;-78
2022/01/11 08:38:01;;;;;;;25.77;15.80;;;1.90;99.90;;;;;;5071093;28;20220;-77
2022/01/11 08:40:29;;;;;;;30.65;16.52;;;2.00;99.90;;;;;;5073703;28;20285;-77
2022/01/11 08:42:56;;;;;;;28.80;17.13;;;2.00;99.90;;;;;;5065942;28;20230;-78
2022/01/11 08:45:23;;;;;;;27.95;16.65;;;1.90;99.90;;;;;;5073787;28;20191;-75
2022/01/11 08:47:50;;;;;;;26.00;16.10;;;1.90;99.90;;;;;;5073875;28;20237;-76
2022/01/11 08:50:18;;;;;;;29.27;16.95;;;2.00;99.90;;;;;;5072780;28;20288;-76
2022/01/11 08:52:46;;;;;;;30.08;17.50;;;2.00;99.90;;;;;;5072852;28;20206;-77
2022/01/11 08:55:14;;;;;;;29.40;16.20;;;2.10;99.90;;;;;;5066294;28;20236;-78
2022/01/11 08:57:44;;;;;;;34.28;18.17;;;2.20;99.90;;;;;;5067388;28;20241;-79
2022/01/11 09:00:16;;;;;;;31.02;17.38;;;2.10;99.90;;;;;;5068545;28;20249;-78
2022/01/11 09:02:44;;;;;;;28.10;16.33;;;2.00;99.90;;;;;;5066899;28;20214;-80
2022/01/11 09:05:11;;;;;;;30.88;18.33;;;2.00;99.90;;;;;;5066856;28;20357;-78
2022/01/11 09:07:38;;;;;;;28.70;17.17;;;1.90;99.90;;;;;;5067236;28;20314;-79
2022/01/11 09:10:06;;;;;;;33.00;18.65;;;2.00;99.90;;;;;;5066504;28;20209;-77
2022/01/11 09:12:33;;;;;;;36.47;17.70;;;1.90;99.90;;;;;;5072410;28;20264;-77
2022/01/11 09:15:02;;;;;;;35.45;18.75;;;1.90;99.90;;;;;;5068840;28;20209;-80
2022/01/11 09:17:29;;;;;;;27.70;16.27;;;1.90;99.90;;;;;;5062683;28;20223;-80
2022/01/11 09:19:56;;;;;;;26.42;16.88;;;2.00;99.90;;;;;;5062370;28;20226;-79
2022/01/11 09:22:23;;;;;;;24.00;16.88;;;2.10;99.90;;;;;;5062078;28;20269;-79
2022/01/11 09:24:50;;;;;;;36.15;17.55;;;2.20;99.90;;;;;;5062887;28;20237;-78
2022/01/11 09:27:17;;;;;;;23.80;16.60;;;2.40;99.90;;;;;;5064999;28;20237;-79
2022/01/11 09:29:45;;;;;;;30.73;17.30;;;2.50;99.90;;;;;;5061722;28;20210;-76
2022/01/11 09:32:13;;;;;;;25.50;16.98;;;2.60;99.90;;;;;;5060993;28;20210;-80
2022/01/11 09:34:41;;;;;;;27.58;17.10;;;2.60;99.90;;;;;;5059855;28;20214;-79
2022/01/11 09:37:10;;;;;;;27.90;16.55;;;2.60;99.90;;;;;;5060930;28;20226;-80
2022/01/11 09:39:39;;;;;;;23.15;15.50;;;2.80;99.90;;;;;;5061063;28;20305;-78
2022/01/11 09:42:07;;;;;;;23.98;15.23;;;2.90;99.90;;;;;;5062200;28;20228;-81
2022/01/11 09:44:38;;;;;;;29.38;16.17;;;3.00;99.90;;;;;;5066946;28;20233;-77
2022/01/11 09:47:06;;;;;;;22.92;15.52;;;2.90;99.50;;;;;;5068532;28;20237;-78
2022/01/11 09:49:34;;;;;;;30.40;16.60;;;2.90;99.40;;;;;;5069420;28;20268;-79
2022/01/11 09:52:06;;;;;;;28.17;16.63;;;2.90;98.60;;;;;;5068751;28;20214;-78
2022/01/11 09:54:35;;;;;;;23.77;15.75;;;2.90;98.40;;;;;;5064630;28;20281;-78
2022/01/11 09:57:03;;;;;;;27.02;15.52;;;3.10;99.00;;;;;;5066936;28;20226;-78
2022/01/11 09:59:31;;;;;;;26.83;18.33;;;3.30;98.30;;;;;;5068621;28;20226;-78
2022/01/11 10:02:01;;;;;;;22.90;15.55;;;3.30;96.30;;;;;;5069962;28;20237;-79
2022/01/11 10:04:29;;;;;;;28.08;15.40;;;3.30;96.20;;;;;;5072123;28;20234;-77
2022/01/11 10:07:00;;;;;;;26.27;17.02;;;3.40;95.40;;;;;;5073966;28;20240;-78
2022/01/11 10:09:29;;;;;;;23.52;15.07;;;3.60;95.20;;;;;;5076725;28;20205;-77
2022/01/11 10:11:58;;;;;;;23.40;15.50;;;3.60;93.80;;;;;;5077676;28;20202;-75
2022/01/11 10:14:31;;;;;;;21.33;13.95;;;3.80;93.50;;;;;;5077976;28;20206;-78
2022/01/11 10:17:15;;;;;;;25.52;16.02;;;4.00;93.00;;;;;;5071150;28;20258;-79
2022/01/11 10:19:45;;;;;;;25.50;15.43;;;4.20;92.00;;;;;;5070264;28;20194;-78
2022/01/11 10:22:15;;;;;;;22.90;14.70;;;4.40;90.90;;;;;;5064557;28;20229;-79
2022/01/11 10:24:44;;;;;;;22.20;14.93;;;4.40;89.90;;;;;;5064835;28;20213;-77
2022/01/11 10:27:16;;;;;;;27.67;15.80;;;4.20;87.10;;;;;;5064260;28;20246;-78
2022/01/11 10:29:44;;;;;;;32.00;15.38;;;4.30;88.40;;;;;;5066529;28;20210;-78
2022/01/11 10:32:18;;;;;;;25.60;15.73;;;4.40;87.10;;;;;;5068003;28;20217;-78
2022/01/11 10:34:48;;;;;;;20.55;14.60;;;4.50;86.40;;;;;;5073597;28;20210;-78
2022/01/11 10:37:27;;;;;;;25.63;14.73;;;4.40;85.00;;;;;;5076338;28;20238;-75
2022/01/11 10:40:02;;;;;;;24.50;15.20;;;4.50;87.50;;;;;;5076520;28;20274;-77
2022/01/11 10:42:33;;;;;;;25.67;14.45;;;4.70;86.10;;;;;;5066582;28;20228;-81
2022/01/11 10:45:03;;;;;;;20.38;13.70;;;4.70;85.30;;;;;;5067838;28;20207;-78
2022/01/11 10:47:33;;;;;;;19.67;13.82;;;4.80;85.40;;;;;;5064667;28;20233;-77
2022/01/11 10:50:02;;;;;;;22.63;14.55;;;5.00;84.80;;;;;;5070517;28;20221;-79
2022/01/11 10:52:32;;;;;;;25.58;15.35;;;4.90;83.30;;;;;;5068183;28;20215;-78
2022/01/11 10:55:01;;;;;;;23.73;14.50;;;5.00;81.40;;;;;;5072533;28;20202;-78
2022/01/11 10:57:31;;;;;;;22.98;14.98;;;5.00;81.40;;;;;;5072090;28;20226;-76
2022/01/11 11:00:21;;;;;;;27.92;16.25;;;4.80;83.50;;;;;;5071813;28;20214;-78
2022/01/11 11:02:52;;;;;;;24.20;15.02;;;4.80;82.90;;;;;;5066496;28;20631;-78
2022/01/11 11:05:24;;;;;;;19.35;12.90;;;4.90;85.20;;;;;;5068586;28;20203;-78
2022/01/11 11:08:11;;;;;;;23.13;13.50;;;5.20;83.10;;;;;;5076876;28;20290;-74
2022/01/11 11:10:43;;;;;;;18.73;14.05;;;5.40;80.70;;;;;;5077528;28;20209;-76
2022/01/11 11:13:17;;;;;;;18.70;13.15;;;5.50;80.50;;;;;;5077634;28;20229;-76
2022/01/11 11:15:44;;;;;;;20.80;14.15;;;5.50;77.60;;;;;;5069528;28;20218;-77
2022/01/11 11:18:26;;;;;;;20.52;12.80;;;5.40;77.40;;;;;;5063102;28;20198;-77
2022/01/11 11:20:54;;;;;;;20.33;13.05;;;5.50;77.90;;;;;;5064368;28;20219;-78
2022/01/11 11:23:23;;;;;;;17.80;13.88;;;5.40;77.10;;;;;;5068640;28;20222;-78
2022/01/11 11:25:50;;;;;;;24.63;14.75;;;5.60;77.70;;;;;;5070555;28;20211;-78
2022/01/11 11:28:17;;;;;;;19.55;13.90;;;5.60;77.50;;;;;;5064294;28;20230;-78
2022/01/11 11:30:50;;;;;;;20.35;14.32;;;5.70;76.90;;;;;;5063784;28;20580;-78
2022/01/11 11:33:19;;;;;;;19.98;13.38;;;6.00;75.50;;;;;;5068043;28;20207;-78
2022/01/11 11:35:49;;;;;;;19.63;13.38;;;6.10;73.90;;;;;;5066269;28;20202;-78
2022/01/11 11:38:18;;;;;;;19.80;12.70;;;6.20;73.10;;;;;;5066132;28;20269;-78
2022/01/11 11:40:57;;;;;;;17.65;12.05;;;6.30;71.40;;;;;;5068433;28;20211;-77
2022/01/11 11:43:25;;;;;;;23.27;13.43;;;6.20;71.30;;;;;;5076689;28;20226;-76
2022/01/11 11:45:52;;;;;;;22.73;12.70;;;6.10;70.60;;;;;;5076458;28;20207;-76
2022/01/11 11:48:24;;;;;;;16.90;12.38;;;6.10;70.70;;;;;;5076321;28;20210;-79
2022/01/11 11:50:53;;;;;;;25.67;13.13;;;6.10;71.60;;;;;;5075863;28;20178;-78
2022/01/11 11:53:23;;;;;;;24.33;12.57;;;6.10;70.30;;;;;;5071095;28;20302;-77
2022/01/11 11:55:52;;;;;;;18.83;13.60;;;5.90;71.90;;;;;;5070547;28;20241;-76
2022/01/11 11:58:22;;;;;;;17.20;11.55;;;6.00;71.50;;;;;;5068346;28;20246;-76
2022/01/11 12:00:51;;;;;;;19.30;12.95;;;6.10;71.50;;;;;;5061990;28;20222;-77
2022/01/11 12:03:24;;;;;;;15.55;11.40;;;6.30;71.50;;;;;;5066167;28;20272;-77
2022/01/11 12:05:53;;;;;;;17.77;10.95;;;6.10;70.60;;;;;;5068769;28;20226;-76
2022/01/11 12:08:31;;;;;;;22.20;11.65;;;5.90;71.20;;;;;;5066862;28;20213;-77
2022/01/11 12:11:03;;;;;;;20.33;12.07;;;6.00;71.00;;;;;;5066874;28;20225;-77
2022/01/11 12:13:41;;;;;;;16.48;10.35;;;6.00;70.80;;;;;;5057834;28;20228;-77
2022/01/11 12:16:39;;;;;;;13.50;10.05;;;6.10;69.70;;;;;;5067578;28;20320;-76
2022/01/11 12:19:09;;;;;;;12.52;9.68;;;6.20;68.10;;;;;;5077036;28;20202;-77
2022/01/11 12:21:42;;;;;;;18.83;10.75;;;6.40;66.00;;;;;;5077022;28;20210;-77
2022/01/11 12:24:10;;;;;;;13.55;9.75;;;6.40;65.50;;;;;;5076878;28;20187;-76
2022/01/11 12:26:38;;;;;;;14.48;10.52;;;6.10;65.20;;;;;;5071382;28;20302;-78
2022/01/11 12:29:25;;;;;;;13.05;9.65;;;6.10;65.20;;;;;;5071890;28;20237;-77
2022/01/11 12:31:56;;;;;;;14.52;8.60;;;6.20;64.10;;;;;;5074437;28;20401;-76
2022/01/11 12:34:52;;;;;;;18.52;9.82;;;6.10;63.50;;;;;;5055698;28;20206;-75
2022/01/11 12:37:35;;;;;;;13.98;9.63;;;6.00;64.70;;;;;;5057724;28;20304;-76
2022/01/11 12:40:13;;;;;;;11.77;8.57;;;6.00;64.40;;;;;;5057865;28;20210;-77
2022/01/11 12:42:51;;;;;;;13.75;8.63;;;6.20;64.70;;;;;;5062875;28;20664;-76
2022/01/11 12:48:06;;;;;;;12.90;8.38;;;6.40;61.10;;;;;;5049906;28;20194;-77